createdAt,value
2023-04-15T00:00:58.347Z,45.42
2023-04-15T00:03:25.736Z,45.15
2023-04-15T00:05:53.022Z,45.13
2023-04-15T00:08:20.625Z,49.50
2023-04-15T00:10:47.924Z,48.75
2023-04-15T00:13:15.448Z,46.38
2023-04-15T00:15:43.388Z,47.65
2023-04-15T00:18:10.376Z,47.35
2023-04-15T00:20:37.729Z,44.25
2023-04-15T00:23:05.640Z,47.20
2023-04-15T00:25:33.105Z,45.25
2023-04-15T00:27:59.996Z,46.13
2023-04-15T00:30:27.081Z,45.80
2023-04-15T00:32:53.943Z,47.97
2023-04-15T00:35:21.737Z,48.13
2023-04-15T00:37:48.559Z,47.47
2023-04-15T00:40:15.773Z,47.80
2023-04-15T00:42:42.505Z,42.67
2023-04-15T00:45:09.874Z,45.35
2023-04-15T00:47:37.424Z,44.03
2023-04-15T00:50:05.140Z,44.70
2023-04-15T00:52:32.073Z,47.13
2023-04-15T00:54:59.648Z,45.58
2023-04-15T00:57:27.207Z,46.15
2023-04-15T00:59:54.260Z,46.53
2023-04-15T01:02:21.125Z,45.15
2023-04-15T01:04:48.603Z,45.08
2023-04-15T01:07:15.433Z,45.50
2023-04-15T01:09:42.605Z,42.10
2023-04-15T01:12:12.952Z,41.80
2023-04-15T01:14:39.991Z,40.90
2023-04-15T01:17:07.480Z,38.30
2023-04-15T01:19:36.854Z,38.38
2023-04-15T01:22:04.006Z,43.53
2023-04-15T01:24:32.101Z,41.50
2023-04-15T01:26:59.354Z,43.25
2023-04-15T01:29:27.480Z,37.85
2023-04-15T01:31:55.159Z,34.13
2023-04-15T01:34:22.357Z,37.95
2023-04-15T01:36:49.230Z,36.63
2023-04-15T01:39:16.352Z,34.25
2023-04-15T01:41:43.133Z,32.75
2023-04-15T01:44:10.168Z,33.72
2023-04-15T01:46:37.143Z,31.60
2023-04-15T01:49:04.286Z,35.28
2023-04-15T01:51:31.029Z,34.92
2023-04-15T01:53:58.171Z,31.63
2023-04-15T01:56:25.453Z,30.92
2023-04-15T01:58:52.879Z,31.33
2023-04-15T02:01:20.089Z,31.48
2023-04-15T02:03:48.033Z,29.13
2023-04-15T02:06:15.092Z,29.10
2023-04-15T02:08:42.270Z,27.40
2023-04-15T02:11:09.441Z,28.42
2023-04-15T02:13:36.982Z,27.95
2023-04-15T02:16:04.155Z,26.58
2023-04-15T02:18:31.640Z,27.75
2023-04-15T02:20:58.887Z,26.92
2023-04-15T02:23:26.142Z,24.85
2023-04-15T02:25:53.363Z,26.40
2023-04-15T02:28:21.963Z,23.58
2023-04-15T02:30:52.740Z,23.73
2023-04-15T02:33:21.353Z,22.92
2023-04-15T02:35:48.176Z,24.50
2023-04-15T02:38:16.861Z,22.73
2023-04-15T02:40:43.606Z,21.17
2023-04-15T02:43:10.673Z,21.27
2023-04-15T02:45:37.507Z,23.85
2023-04-15T02:48:06.721Z,21.25
2023-04-15T02:50:33.641Z,21.15
2023-04-15T02:53:01.719Z,20.80
2023-04-15T02:55:29.116Z,21.15
2023-04-15T02:57:57.262Z,18.35
2023-04-15T03:00:25.471Z,17.35
2023-04-15T03:02:56.628Z,20.05
2023-04-15T03:05:25.443Z,18.30
2023-04-15T03:07:52.740Z,18.08
2023-04-15T03:10:20.103Z,18.25
2023-04-15T03:12:47.228Z,17.77
2023-04-15T03:15:14.015Z,14.57
2023-04-15T03:17:41.163Z,15.63
2023-04-15T03:20:08.839Z,17.08
2023-04-15T03:22:36.039Z,14.35
2023-04-15T03:25:02.859Z,14.45
2023-04-15T03:27:30.007Z,14.73
2023-04-15T03:29:56.914Z,17.13
2023-04-15T03:32:24.234Z,14.50
2023-04-15T03:34:51.118Z,16.60
2023-04-15T03:37:18.149Z,13.73
2023-04-15T03:39:44.988Z,14.30
2023-04-15T03:42:12.121Z,12.55
2023-04-15T03:44:38.959Z,14.25
2023-04-15T03:47:06.162Z,12.68
2023-04-15T03:49:32.914Z,14.00
2023-04-15T03:52:00.061Z,13.13
2023-04-15T03:54:26.831Z,12.70
2023-04-15T03:56:53.928Z,10.57
2023-04-15T03:59:20.662Z,12.77
2023-04-15T04:01:47.887Z,11.80
2023-04-15T04:04:14.832Z,11.32
2023-04-15T04:06:41.964Z,10.63
2023-04-15T04:09:08.699Z,9.63
2023-04-15T04:11:35.847Z,11.85
2023-04-15T04:14:02.584Z,11.65
2023-04-15T04:16:29.729Z,10.68
2023-04-15T04:18:56.569Z,9.50
2023-04-15T04:21:23.674Z,9.10
2023-04-15T04:23:50.755Z,9.38
2023-04-15T04:26:17.896Z,7.43
2023-04-15T04:28:44.744Z,11.00
2023-04-15T04:31:11.927Z,9.88
2023-04-15T04:33:38.702Z,11.02
2023-04-15T04:36:06.008Z,9.80
2023-04-15T04:38:32.803Z,10.77
2023-04-15T04:40:59.874Z,8.27
2023-04-15T04:43:27.124Z,8.73
2023-04-15T04:45:54.265Z,11.73
2023-04-15T04:48:21.336Z,7.97
2023-04-15T04:50:48.496Z,9.98
2023-04-15T04:53:15.307Z,9.27
2023-04-15T04:55:42.507Z,9.98
2023-04-15T04:58:09.302Z,9.57
2023-04-15T05:00:37.948Z,9.52
2023-04-15T05:03:04.868Z,9.27
2023-04-15T05:05:32.089Z,8.73
2023-04-15T05:07:58.863Z,8.93
2023-04-15T05:10:26.201Z,7.57
2023-04-15T05:12:52.989Z,8.57
2023-04-15T05:15:20.470Z,8.73
2023-04-15T05:17:47.318Z,9.70
2023-04-15T05:20:14.597Z,9.48
2023-04-15T05:22:41.400Z,8.20
2023-04-15T05:25:08.826Z,11.82
2023-04-15T05:27:36.120Z,10.88
2023-04-15T05:30:03.388Z,9.88
2023-04-15T05:32:30.228Z,9.43
2023-04-15T05:34:57.361Z,12.05
2023-04-15T05:37:24.098Z,11.57
2023-04-15T05:39:51.172Z,11.45
2023-04-15T05:42:17.982Z,10.48
2023-04-15T05:44:45.067Z,10.13
2023-04-15T05:47:11.952Z,10.23
2023-04-15T05:49:39.027Z,12.52
2023-04-15T05:52:05.929Z,9.27
2023-04-15T05:54:33.115Z,11.40
2023-04-15T05:56:59.918Z,8.80
2023-04-15T05:59:28.377Z,8.95
2023-04-15T06:01:55.285Z,9.23
2023-04-15T06:04:22.872Z,9.45
2023-04-15T06:06:49.778Z,9.90
2023-04-15T06:09:16.924Z,9.65
2023-04-15T06:11:43.707Z,10.45
2023-04-15T06:14:10.869Z,9.23
2023-04-15T06:16:37.917Z,9.40
2023-04-15T06:19:05.229Z,11.02
2023-04-15T06:21:31.981Z,11.20
2023-04-15T06:24:01.526Z,9.25
2023-04-15T06:26:28.446Z,10.75
2023-04-15T06:28:55.800Z,9.48
2023-04-15T06:31:22.938Z,8.55
2023-04-15T06:33:50.062Z,8.75
2023-04-15T06:36:16.896Z,8.98
2023-04-15T06:38:44.068Z,8.95
2023-04-15T06:41:10.901Z,7.93
2023-04-15T06:43:37.989Z,7.78
2023-04-15T06:46:04.882Z,7.93
2023-04-15T06:48:32.306Z,7.15
2023-04-15T06:50:59.064Z,8.93
2023-04-15T06:53:28.100Z,7.63
2023-04-15T06:55:54.906Z,6.68
2023-04-15T06:58:22.286Z,8.10
2023-04-15T07:00:49.252Z,7.47
2023-04-15T07:03:16.536Z,6.85
2023-04-15T07:05:43.562Z,8.02
2023-04-15T07:08:10.732Z,7.03
2023-04-15T07:10:38.638Z,8.07
2023-04-15T07:13:07.111Z,9.45
2023-04-15T07:15:33.987Z,7.90
2023-04-15T07:18:01.819Z,7.38
2023-04-15T07:20:28.624Z,8.35
2023-04-15T07:22:55.736Z,7.35
2023-04-15T07:25:22.909Z,8.00
2023-04-15T07:27:50.086Z,9.73
2023-04-15T07:30:16.979Z,9.50
2023-04-15T07:32:44.153Z,6.53
2023-04-15T07:35:11.693Z,8.25
2023-04-15T07:37:38.883Z,8.73
2023-04-15T07:40:07.494Z,8.00
2023-04-15T07:42:34.784Z,7.47
2023-04-15T07:45:01.620Z,8.20
2023-04-15T07:47:28.860Z,7.43
2023-04-15T07:49:55.728Z,7.53
2023-04-15T07:52:22.809Z,7.15
2023-04-15T07:54:49.617Z,5.47
2023-04-15T07:57:17.882Z,5.43
2023-04-15T07:59:44.673Z,5.80
2023-04-15T08:02:12.013Z,6.05
2023-04-15T08:04:39.531Z,5.72
2023-04-15T08:07:07.139Z,4.30
2023-04-15T08:09:34.090Z,5.15
2023-04-15T08:12:01.215Z,5.53
2023-04-15T08:14:28.187Z,4.22
2023-04-15T08:16:55.376Z,3.38
2023-04-15T08:19:23.007Z,3.53
2023-04-15T08:21:51.215Z,3.15
2023-04-15T08:24:18.050Z,3.40
2023-04-15T08:26:46.974Z,3.28
2023-04-15T08:29:13.953Z,2.97
2023-04-15T08:31:41.118Z,2.80
2023-04-15T08:34:07.908Z,2.53
2023-04-15T08:36:35.237Z,3.58
2023-04-15T08:39:46.159Z,3.17
2023-04-15T08:42:17.416Z,3.63
2023-04-15T08:44:44.771Z,2.42
2023-04-15T08:47:13.676Z,1.65
2023-04-15T08:49:41.801Z,3.03
2023-04-15T08:52:09.432Z,2.00
2023-04-15T08:54:54.389Z,1.73
2023-04-15T08:57:21.874Z,1.90
2023-04-15T08:59:49.657Z,1.92
2023-04-15T09:02:17.346Z,1.42
2023-04-15T09:04:44.311Z,2.83
2023-04-15T09:07:11.652Z,1.65
2023-04-15T09:09:40.422Z,2.10
2023-04-15T09:12:08.690Z,4.45
2023-04-15T09:14:35.697Z,2.15
2023-04-15T09:17:04.284Z,3.05
2023-04-15T09:19:31.616Z,2.05
2023-04-15T09:21:59.511Z,2.00
2023-04-15T09:24:27.165Z,2.17
2023-04-15T09:26:54.910Z,5.38
2023-04-15T09:29:21.851Z,2.33
2023-04-15T09:31:49.171Z,3.03
2023-04-15T09:34:16.201Z,2.55
2023-04-15T09:36:46.424Z,2.72
2023-04-15T09:39:13.681Z,3.70
2023-04-15T09:41:41.033Z,3.35
2023-04-15T09:44:07.816Z,3.42
2023-04-15T09:46:42.667Z,2.63
2023-04-15T09:49:10.401Z,4.03
2023-04-15T09:51:37.818Z,3.50
2023-04-15T09:54:04.789Z,2.45
2023-04-15T09:56:37.417Z,2.67
2023-04-15T09:59:07.360Z,2.67
2023-04-15T10:01:34.878Z,3.30
2023-04-15T10:04:05.465Z,3.03
2023-04-15T10:06:33.044Z,3.25
2023-04-15T10:08:59.915Z,3.20
2023-04-15T10:11:31.623Z,3.30
2023-04-15T10:13:58.674Z,2.92
2023-04-15T10:16:27.723Z,4.18
2023-04-15T10:18:58.615Z,3.42
2023-04-15T10:21:25.758Z,2.72
2023-04-15T10:23:52.830Z,3.28
2023-04-15T10:26:19.977Z,3.17
2023-04-15T10:28:48.323Z,2.53
2023-04-15T10:31:15.561Z,2.88
2023-04-15T10:33:43.091Z,3.30
2023-04-15T10:36:10.395Z,2.72
2023-04-15T10:38:44.518Z,2.63
2023-04-15T10:41:24.624Z,2.92
2023-04-15T10:44:04.666Z,5.88
2023-04-15T10:46:42.124Z,3.85
2023-04-15T10:49:11.133Z,3.97
2023-04-15T10:51:42.818Z,3.22
2023-04-15T10:54:16.199Z,4.00
2023-04-15T10:56:46.345Z,3.08
2023-04-15T10:59:13.154Z,4.25
2023-04-15T11:02:01.586Z,2.70
2023-04-15T11:05:00.101Z,2.20
2023-04-15T11:07:46.955Z,3.22
2023-04-15T11:10:13.768Z,3.15
2023-04-15T11:12:41.295Z,2.40
2023-04-15T11:15:27.139Z,3.05
2023-04-15T11:17:54.381Z,2.17
2023-04-15T11:20:21.289Z,4.72
2023-04-15T11:22:52.534Z,2.58
2023-04-15T11:25:35.758Z,2.20
2023-04-15T11:28:03.673Z,1.92
2023-04-15T11:30:32.385Z,2.45
2023-04-15T11:33:01.336Z,2.08
2023-04-15T11:35:28.533Z,2.25
2023-04-15T11:37:55.859Z,2.17
2023-04-15T11:40:23.792Z,1.83
2023-04-15T11:43:12.780Z,2.65
2023-04-15T11:45:59.207Z,2.45
2023-04-15T11:48:33.590Z,2.58
2023-04-15T11:51:07.232Z,1.65
2023-04-15T11:53:47.792Z,1.88
2023-04-15T11:56:22.362Z,2.85
2023-04-15T11:58:52.792Z,2.33
2023-04-15T12:01:19.956Z,2.25
2023-04-15T12:03:47.450Z,2.10
2023-04-15T12:06:24.576Z,1.75
2023-04-15T12:09:03.818Z,3.17
2023-04-15T12:11:37.748Z,2.90
2023-04-15T12:14:26.889Z,4.67
2023-04-15T12:17:04.832Z,2.22
2023-04-15T12:19:35.673Z,2.75
2023-04-15T12:22:04.630Z,4.00
2023-04-15T12:24:36.023Z,2.92
2023-04-15T12:27:07.247Z,3.53
2023-04-15T12:29:35.278Z,2.08
2023-04-15T12:32:06.112Z,2.42
2023-04-15T12:34:34.868Z,3.13
2023-04-15T12:37:02.790Z,2.13
2023-04-15T12:39:36.132Z,2.70
2023-04-15T12:42:04.404Z,2.83
2023-04-15T12:44:31.744Z,3.67
2023-04-15T12:47:00.041Z,2.58
2023-04-15T12:49:27.493Z,3.22
2023-04-15T12:51:56.307Z,2.47
2023-04-15T12:54:23.400Z,2.72
2023-04-15T12:56:50.598Z,2.90
2023-04-15T12:59:18.647Z,7.20
2023-04-15T13:01:46.634Z,4.78
2023-04-15T13:04:14.204Z,11.45
2023-04-15T13:06:41.116Z,5.35
2023-04-15T13:09:08.305Z,4.15
2023-04-15T13:11:35.829Z,4.03
2023-04-15T13:14:04.277Z,4.75
2023-04-15T13:16:32.152Z,3.50
2023-04-15T13:18:59.917Z,3.45
2023-04-15T13:21:27.373Z,4.10
2023-04-15T13:23:54.605Z,3.60
2023-04-15T13:26:21.380Z,3.60
2023-04-15T13:28:48.596Z,5.32
2023-04-15T13:31:15.892Z,5.60
2023-04-15T13:33:43.036Z,5.65
2023-04-15T13:36:09.872Z,2.85
2023-04-15T13:38:36.939Z,3.80
2023-04-15T13:41:03.944Z,4.47
2023-04-15T13:43:33.662Z,3.05
2023-04-15T13:46:00.726Z,4.82
2023-04-15T13:48:28.506Z,4.07
2023-04-15T13:50:55.497Z,3.38
2023-04-15T13:53:38.373Z,6.35
2023-04-15T13:56:09.269Z,3.50
2023-04-15T13:58:37.101Z,4.20
2023-04-15T14:01:05.816Z,7.57
2023-04-15T14:03:34.984Z,3.30
2023-04-15T14:06:02.181Z,4.50
2023-04-15T14:08:29.855Z,3.25
2023-04-15T14:10:57.712Z,3.85
2023-04-15T14:13:25.038Z,3.17
2023-04-15T14:15:52.030Z,4.82
2023-04-15T14:18:19.117Z,3.67
2023-04-15T14:20:46.050Z,4.28
2023-04-15T14:23:13.159Z,3.15
2023-04-15T14:25:39.923Z,5.38
2023-04-15T14:28:07.014Z,4.95
2023-04-15T14:30:33.781Z,9.95
2023-04-15T14:33:01.036Z,5.68
2023-04-15T14:35:28.041Z,6.53
2023-04-15T14:37:55.713Z,5.68
2023-04-15T14:40:22.663Z,4.35
2023-04-15T14:42:49.894Z,5.90
2023-04-15T14:45:17.704Z,6.22
2023-04-15T14:47:45.062Z,5.03
2023-04-15T14:50:12.147Z,4.93
2023-04-15T14:52:39.302Z,5.45
2023-04-15T14:55:07.314Z,5.00
2023-04-15T14:57:34.345Z,5.15
2023-04-15T15:00:01.657Z,4.40
2023-04-15T15:02:38.393Z,3.35
2023-04-15T15:05:06.743Z,4.20
2023-04-15T15:07:34.009Z,5.85
2023-04-15T15:10:00.857Z,4.35
2023-04-15T15:12:27.924Z,4.95
2023-04-15T15:14:55.424Z,4.32
2023-04-15T15:17:22.464Z,5.68
2023-04-15T15:19:49.317Z,4.60
2023-04-15T15:22:17.305Z,5.45
2023-04-15T15:24:45.285Z,4.65
2023-04-15T15:27:12.370Z,3.78
2023-04-15T15:29:39.299Z,5.35
2023-04-15T15:32:06.609Z,4.85
2023-04-15T15:34:33.394Z,7.05
2023-04-15T15:37:00.837Z,5.50
2023-04-15T15:39:27.744Z,7.30
2023-04-15T15:41:55.053Z,7.20
2023-04-15T15:44:21.834Z,6.43
2023-04-15T15:46:52.399Z,7.85
2023-04-15T15:49:19.908Z,9.60
2023-04-15T15:51:47.064Z,8.93
2023-04-15T15:54:13.815Z,7.60
2023-04-15T15:56:42.238Z,8.15
2023-04-15T15:59:09.101Z,26.85
2023-04-15T16:01:36.379Z,35.40
2023-04-15T16:04:03.510Z,30.50
2023-04-15T16:06:33.241Z,40.10
2023-04-15T16:09:01.987Z,47.78
2023-04-15T16:11:29.607Z,58.72
2023-04-15T16:13:56.505Z,54.33
2023-04-15T16:16:24.322Z,37.50
2023-04-15T16:18:51.242Z,33.65
2023-04-15T16:21:19.564Z,27.88
2023-04-15T16:23:46.623Z,29.15
2023-04-15T16:26:14.029Z,35.35
2023-04-15T16:28:40.825Z,30.30
2023-04-15T16:31:07.896Z,25.92
2023-04-15T16:33:34.635Z,25.02
2023-04-15T16:36:01.734Z,24.52
2023-04-15T16:38:28.519Z,23.73
2023-04-15T16:40:56.304Z,22.73
2023-04-15T16:43:23.161Z,19.92
2023-04-15T16:45:51.412Z,18.38
2023-04-15T16:48:19.155Z,19.42
2023-04-15T16:50:46.360Z,19.05
2023-04-15T16:53:14.883Z,16.50
2023-04-15T16:55:41.948Z,17.23
2023-04-15T16:58:08.710Z,16.67
2023-04-15T17:00:36.857Z,16.70
2023-04-15T17:03:04.084Z,16.45
2023-04-15T17:05:31.430Z,15.88
2023-04-15T17:07:58.569Z,14.32
2023-04-15T17:10:25.883Z,14.55
2023-04-15T17:12:52.912Z,15.32
2023-04-15T17:15:20.115Z,15.63
2023-04-15T17:17:46.989Z,13.45
2023-04-15T17:20:14.314Z,13.75
2023-04-15T17:22:41.156Z,13.38
2023-04-15T17:25:08.498Z,13.75
2023-04-15T17:27:35.646Z,12.63
2023-04-15T17:30:02.716Z,14.88
2023-04-15T17:32:32.051Z,16.92
2023-04-15T17:34:59.312Z,14.57
2023-04-15T17:37:26.822Z,12.57
2023-04-15T17:39:53.880Z,12.88
2023-04-15T17:42:22.701Z,14.73
2023-04-15T17:44:49.934Z,13.95
2023-04-15T17:47:17.111Z,17.17
2023-04-15T17:49:44.280Z,17.83
2023-04-15T17:52:11.391Z,20.00
2023-04-15T17:54:38.505Z,20.80
2023-04-15T17:57:05.532Z,18.98
2023-04-15T17:59:33.822Z,21.83
2023-04-15T18:02:00.658Z,22.20
2023-04-15T18:04:28.419Z,20.83
2023-04-15T18:06:55.317Z,23.70
2023-04-15T18:09:22.398Z,26.30
2023-04-15T18:11:49.297Z,27.88
2023-04-15T18:14:30.634Z,24.05
2023-04-15T18:17:00.631Z,24.77
2023-04-15T18:19:27.954Z,26.00
2023-04-15T18:21:54.843Z,19.17
2023-04-15T18:24:22.524Z,21.58
2023-04-15T18:26:49.491Z,20.40
2023-04-15T18:29:16.690Z,20.77
2023-04-15T18:31:43.941Z,17.55
2023-04-15T18:34:11.146Z,20.38
2023-04-15T18:36:37.981Z,17.75
2023-04-15T18:39:05.384Z,19.60
2023-04-15T18:41:32.364Z,15.45
2023-04-15T18:43:59.485Z,20.63
2023-04-15T18:46:26.396Z,17.02
2023-04-15T18:48:53.536Z,16.42
2023-04-15T18:51:20.504Z,15.15
2023-04-15T18:53:47.652Z,17.15
2023-04-15T18:56:14.461Z,15.77
2023-04-15T18:59:25.304Z,16.17
2023-04-15T19:01:29.766Z,13.05
2023-04-15T19:03:57.373Z,14.30
2023-04-15T19:06:24.195Z,14.57
2023-04-15T19:08:51.835Z,15.32
2023-04-15T19:11:18.624Z,14.07
2023-04-15T19:13:45.731Z,15.52
2023-04-15T19:16:12.645Z,14.57
2023-04-15T19:18:39.741Z,12.38
2023-04-15T19:21:06.574Z,13.50
2023-04-15T19:23:33.668Z,11.52
2023-04-15T19:26:00.475Z,13.63
2023-04-15T19:28:28.441Z,14.40
2023-04-15T19:30:55.299Z,12.15
2023-04-15T19:33:22.732Z,13.77
2023-04-15T19:35:50.227Z,13.23
2023-04-15T19:38:17.396Z,12.93
2023-04-15T19:40:44.584Z,12.07
2023-04-15T19:43:11.637Z,12.75
2023-04-15T19:45:38.426Z,10.68
2023-04-15T19:48:06.271Z,12.25
2023-04-15T19:50:33.373Z,11.35
2023-04-15T19:53:00.500Z,12.02
2023-04-15T19:55:27.297Z,10.50
2023-04-15T19:57:54.466Z,12.30
2023-04-15T20:00:21.488Z,11.48
2023-04-15T20:02:48.753Z,10.75
2023-04-15T20:05:15.768Z,11.52
2023-04-15T20:07:43.138Z,11.05
2023-04-15T20:10:13.010Z,12.18
2023-04-15T20:12:49.836Z,12.07
2023-04-15T20:15:19.305Z,10.95
2023-04-15T20:17:46.540Z,10.32
2023-04-15T20:20:13.556Z,11.60
2023-04-15T20:22:41.192Z,11.13
2023-04-15T20:25:08.379Z,10.70
2023-04-15T20:27:35.521Z,9.40
2023-04-15T20:30:04.271Z,9.95
2023-04-15T20:32:35.609Z,10.10
2023-04-15T20:35:03.599Z,11.00
2023-04-15T20:37:33.038Z,11.50
2023-04-15T20:40:00.722Z,10.57
2023-04-15T20:42:28.084Z,10.25
2023-04-15T20:44:54.990Z,7.97
2023-04-15T20:47:22.197Z,9.13
2023-04-15T20:49:49.188Z,10.85
2023-04-15T20:52:16.386Z,8.73
2023-04-15T20:54:43.210Z,10.32
2023-04-15T20:57:10.714Z,11.07
2023-04-15T20:59:37.565Z,9.75
2023-04-15T21:02:04.879Z,8.50
2023-04-15T21:04:31.819Z,8.10
2023-04-15T21:06:58.945Z,10.02
2023-04-15T21:09:25.910Z,11.15
2023-04-15T21:12:01.090Z,11.65
2023-04-15T21:14:28.151Z,10.05
2023-04-15T21:16:56.292Z,11.70
2023-04-15T21:19:23.101Z,11.02
2023-04-15T21:21:50.316Z,14.20
2023-04-15T21:24:17.081Z,12.77
2023-04-15T21:26:44.257Z,14.27
2023-04-15T21:29:11.843Z,10.80
2023-04-15T21:31:40.561Z,12.43
2023-04-15T21:34:07.418Z,13.10
2023-04-15T21:36:34.555Z,12.32
2023-04-15T21:39:01.412Z,12.93
2023-04-15T21:41:28.527Z,16.13
2023-04-15T21:43:55.303Z,15.05
2023-04-15T21:46:25.259Z,16.05
2023-04-15T21:48:53.399Z,16.95
2023-04-15T21:51:20.612Z,15.02
2023-04-15T21:53:47.422Z,17.67
2023-04-15T21:56:14.577Z,15.40
2023-04-15T21:58:41.842Z,15.52
2023-04-15T22:01:08.918Z,15.25
2023-04-15T22:03:35.988Z,17.42
2023-04-15T22:06:03.504Z,15.55
2023-04-15T22:08:38.274Z,14.05
2023-04-15T22:11:21.632Z,17.83
2023-04-15T22:13:48.520Z,16.73
2023-04-15T22:16:15.693Z,15.85
2023-04-15T22:18:42.512Z,16.67
2023-04-15T22:21:09.663Z,16.85
2023-04-15T22:23:36.476Z,17.45
2023-04-15T22:26:04.880Z,18.55
2023-04-15T22:28:31.788Z,16.38
2023-04-15T22:30:59.158Z,18.48
2023-04-15T22:33:26.018Z,18.60
2023-04-15T22:35:53.134Z,21.40
2023-04-15T22:38:19.956Z,24.42
2023-04-15T22:40:47.049Z,27.55
2023-04-15T22:43:13.878Z,28.33
2023-04-15T22:45:40.962Z,28.98
2023-04-15T22:48:07.736Z,33.72
2023-04-15T22:50:37.189Z,34.38
2023-04-15T22:53:03.969Z,32.83
2023-04-15T22:55:31.358Z,31.92
2023-04-15T22:57:58.153Z,30.55
2023-04-15T23:00:25.439Z,34.28
2023-04-15T23:02:52.375Z,30.95
2023-04-15T23:05:19.826Z,31.45
2023-04-15T23:07:46.649Z,27.15
2023-04-15T23:10:13.746Z,30.33
2023-04-15T23:12:40.598Z,29.90
2023-04-15T23:15:08.328Z,33.05
2023-04-15T23:17:35.245Z,32.47
2023-04-15T23:20:02.297Z,30.42
2023-04-15T23:22:29.049Z,28.60
2023-04-15T23:24:56.164Z,32.45
2023-04-15T23:27:22.944Z,31.02
2023-04-15T23:29:50.020Z,31.20
2023-04-15T23:32:16.822Z,30.73
2023-04-15T23:34:43.916Z,31.80
2023-04-15T23:37:10.761Z,29.63
2023-04-15T23:39:37.836Z,31.05
2023-04-15T23:42:04.638Z,28.70
2023-04-15T23:44:31.701Z,29.30
2023-04-15T23:46:58.459Z,28.75
2023-04-15T23:49:25.650Z,30.25
2023-04-15T23:51:52.452Z,29.98
2023-04-15T23:54:19.516Z,26.25
2023-04-15T23:56:46.843Z,29.35
2023-04-15T23:59:14.028Z,25.13
